createdAt,value
2023-08-02T00:00:00.164Z,986.95
2023-08-02T00:05:00.107Z,987.08
2023-08-02T00:10:00.165Z,987.03
2023-08-02T00:15:00.109Z,986.89
2023-08-02T00:20:00.093Z,986.89
2023-08-02T00:25:00.108Z,986.94
2023-08-02T00:30:00.145Z,986.89
2023-08-02T00:35:00.097Z,986.81
2023-08-02T00:40:00.158Z,986.84
2023-08-02T00:45:00.102Z,986.88
2023-08-02T00:50:00.135Z,986.82
2023-08-02T00:55:00.111Z,986.79
2023-08-02T01:00:00.145Z,986.77
2023-08-02T01:05:00.101Z,986.73
2023-08-02T01:10:00.169Z,986.68
2023-08-02T01:15:00.105Z,986.7
2023-08-02T01:20:00.102Z,986.71
2023-08-02T01:25:00.407Z,986.75
2023-08-02T01:30:00.164Z,986.85
2023-08-02T01:35:00.144Z,986.73
2023-08-02T01:40:00.137Z,986.77
2023-08-02T01:45:00.083Z,986.68
2023-08-02T01:50:00.162Z,986.68
2023-08-02T01:55:00.155Z,986.67
2023-08-02T02:00:00.137Z,986.61
2023-08-02T02:05:00.115Z,986.57
2023-08-02T02:10:00.148Z,986.54
2023-08-02T02:15:00.084Z,986.56
2023-08-02T02:20:00.113Z,986.52
2023-08-02T02:25:00.107Z,986.45
2023-08-02T02:30:00.163Z,986.41
2023-08-02T02:35:00.113Z,986.31
2023-08-02T02:40:00.084Z,986.3
2023-08-02T02:45:00.110Z,986.34
2023-08-02T02:50:00.131Z,986.3
2023-08-02T02:55:00.108Z,986.27
2023-08-02T03:00:00.197Z,986.37
2023-08-02T03:05:00.101Z,986.29
2023-08-02T03:10:00.164Z,986.32
2023-08-02T03:15:00.099Z,986.35
2023-08-02T03:20:00.099Z,986.39
2023-08-02T03:25:00.091Z,985.75
2023-08-02T03:30:00.146Z,985.79
2023-08-02T03:35:00.099Z,985.79
2023-08-02T03:40:00.113Z,985.75
2023-08-02T03:45:00.138Z,985.75
2023-08-02T03:50:00.153Z,985.81
2023-08-02T03:55:00.125Z,985.71
2023-08-02T04:00:00.255Z,985.7
2023-08-02T04:05:00.105Z,985.55
2023-08-02T04:10:00.141Z,985.56
2023-08-02T04:15:00.136Z,985.58
2023-08-02T04:20:00.117Z,985.59
2023-08-02T04:25:00.119Z,985.55
2023-08-02T04:30:00.211Z,985.57
2023-08-02T04:35:00.107Z,985.49
2023-08-02T04:40:00.096Z,985.36
2023-08-02T04:45:00.093Z,985.54
2023-08-02T04:50:00.123Z,985.29
2023-08-02T04:55:00.088Z,985.31
2023-08-02T05:00:00.141Z,985.18
2023-08-02T05:05:00.093Z,985.26
2023-08-02T05:10:00.127Z,985.28
2023-08-02T05:15:00.121Z,985.23
2023-08-02T05:20:00.099Z,985.34
2023-08-02T05:25:00.111Z,985.37
2023-08-02T05:30:00.198Z,985.23
2023-08-02T05:35:00.119Z,985.18
2023-08-02T05:40:00.118Z,985.22
2023-08-02T05:45:00.102Z,985.27
2023-08-02T05:50:00.235Z,985.38
2023-08-02T05:55:00.110Z,985.35
2023-08-02T06:00:00.175Z,985.35
2023-08-02T06:05:00.095Z,985.11
2023-08-02T06:10:00.147Z,985.01
2023-08-02T06:15:00.105Z,985.08
2023-08-02T06:20:00.082Z,985.04
2023-08-02T06:25:00.114Z,985.17
2023-08-02T06:30:00.181Z,985.07
2023-08-02T06:35:00.092Z,985.14
2023-08-02T06:40:00.107Z,985.04
2023-08-02T06:45:00.138Z,984.88
2023-08-02T06:50:00.149Z,984.93
2023-08-02T06:55:00.124Z,984.84
2023-08-02T07:00:00.213Z,984.78
2023-08-02T07:05:00.095Z,984.6
2023-08-02T07:10:00.145Z,984.6
2023-08-02T07:15:00.171Z,984.59
2023-08-02T07:20:00.141Z,984.48
2023-08-02T07:25:00.134Z,984.58
2023-08-02T07:30:00.175Z,984.58
2023-08-02T07:35:00.122Z,984.5
2023-08-02T07:40:00.125Z,984.64
2023-08-02T07:45:00.164Z,984.51
2023-08-02T07:50:00.149Z,984.55
2023-08-02T07:55:00.103Z,984.49
2023-08-02T08:00:00.248Z,984.42
2023-08-02T08:05:00.136Z,984.41
2023-08-02T08:10:00.125Z,984.32
2023-08-02T08:15:00.159Z,984.35
2023-08-02T08:20:00.107Z,984.32
2023-08-02T08:25:00.117Z,984.28
2023-08-02T08:30:00.197Z,984.13
2023-08-02T08:35:00.101Z,984.23
2023-08-02T08:40:13.603Z,984.03
2023-08-02T08:45:00.114Z,983.95
2023-08-02T08:50:00.171Z,983.94
2023-08-02T08:55:00.136Z,983.96
2023-08-02T09:00:00.210Z,983.94
2023-08-02T09:05:00.127Z,983.77
2023-08-02T09:10:02.437Z,983.78
2023-08-02T09:15:00.335Z,983.52
2023-08-02T09:20:00.108Z,983.57
2023-08-02T09:25:00.106Z,983.48
2023-08-02T09:30:00.177Z,983.55
2023-08-02T09:35:00.131Z,983.43
2023-08-02T09:40:00.156Z,983.28
2023-08-02T09:45:00.118Z,983.35
2023-08-02T09:50:00.139Z,983.24
2023-08-02T09:55:00.114Z,983.08
2023-08-02T10:00:00.185Z,983.1
2023-08-02T10:05:00.187Z,983.09
2023-08-02T10:10:00.153Z,982.97
2023-08-02T10:15:00.145Z,982.8
2023-08-02T10:20:00.092Z,982.68
2023-08-02T10:25:00.123Z,982.68
2023-08-02T10:30:00.184Z,982.57
2023-08-02T10:35:00.152Z,982.5
2023-08-02T10:40:00.133Z,982.48
2023-08-02T10:45:00.148Z,982.43
2023-08-02T10:50:00.224Z,982.26
2023-08-02T10:55:00.138Z,982.33
2023-08-02T11:00:00.173Z,982.35
2023-08-02T11:05:00.155Z,982.35
2023-08-02T11:10:00.135Z,982.32
2023-08-02T11:15:00.137Z,982.16
2023-08-02T11:25:00.121Z,982.02
2023-08-02T11:30:00.194Z,981.93
2023-08-02T11:35:00.131Z,981.81
2023-08-02T11:40:19.571Z,981.6
2023-08-02T11:45:21.716Z,981.56
2023-08-02T11:50:00.136Z,981.4
2023-08-02T11:55:00.154Z,981.16
2023-08-02T12:00:00.164Z,981.05
2023-08-02T12:05:00.103Z,980.76
2023-08-02T12:10:00.140Z,980.76
2023-08-02T12:15:00.137Z,980.74
2023-08-02T12:20:00.118Z,980.6
2023-08-02T12:25:00.105Z,980.69
2023-08-02T12:30:00.160Z,980.62
2023-08-02T12:35:10.146Z,980.64
2023-08-02T12:40:00.163Z,980.73
2023-08-02T12:45:12.176Z,980.52
2023-08-02T12:50:00.145Z,980.6
2023-08-02T12:55:00.129Z,980.62
2023-08-02T13:00:00.285Z,980.6
2023-08-02T13:05:00.131Z,980.44
2023-08-02T13:10:00.144Z,980.01
2023-08-02T13:15:00.128Z,979.95
2023-08-02T13:20:00.121Z,979.77
2023-08-02T13:25:00.112Z,979.56
2023-08-02T13:30:00.157Z,979.41
2023-08-02T13:35:01.782Z,979.39
2023-08-02T13:40:00.155Z,979.36
2023-08-02T13:45:00.157Z,979.5
2023-08-02T13:50:00.167Z,979.5
2023-08-02T13:55:00.127Z,979.42
2023-08-02T14:00:00.222Z,979.33
2023-08-02T14:05:00.138Z,979.6
2023-08-02T14:10:00.172Z,979.61
2023-08-02T14:15:00.140Z,979.55
2023-08-02T14:20:00.105Z,979.49
2023-08-02T14:25:00.092Z,979.51
2023-08-02T14:30:01.232Z,979.4
2023-08-02T14:35:00.138Z,979.37
2023-08-02T14:40:00.257Z,979.25
2023-08-02T14:45:00.163Z,979.29
2023-08-02T14:50:00.180Z,979.17
2023-08-02T14:55:00.100Z,978.8
2023-08-02T15:00:00.189Z,978.77
2023-08-02T15:05:00.118Z,978.39
2023-08-02T15:10:00.141Z,977.81
2023-08-02T15:15:00.138Z,978.44
2023-08-02T15:20:00.123Z,978.4
2023-08-02T15:25:00.124Z,978.39
2023-08-02T15:30:00.222Z,978.52
2023-08-02T15:35:00.128Z,978.45
2023-08-02T15:40:00.100Z,978.34
2023-08-02T15:45:02.697Z,978.22
2023-08-02T15:50:00.169Z,978.19
2023-08-02T15:55:00.151Z,977.95
2023-08-02T16:00:00.244Z,977.89
2023-08-02T16:05:00.145Z,977.75
2023-08-02T16:10:00.129Z,977.56
2023-08-02T16:15:00.159Z,977.28
2023-08-02T16:20:00.218Z,977.44
2023-08-02T16:25:00.168Z,977.6
2023-08-02T16:30:00.171Z,977.47
2023-08-02T16:35:00.102Z,977.34
2023-08-02T16:40:00.113Z,977.4
2023-08-02T16:45:00.127Z,977.38
2023-08-02T16:50:00.182Z,977.33
2023-08-02T16:55:00.585Z,977.27
2023-08-02T17:00:00.615Z,977.25
2023-08-02T17:05:00.650Z,977.34
2023-08-02T17:10:00.581Z,977.24
2023-08-02T17:15:00.587Z,977.35
2023-08-02T17:20:00.591Z,977.03
2023-08-02T17:25:00.606Z,977.12
2023-08-02T17:30:00.630Z,977.09
2023-08-02T17:35:00.143Z,976.88
2023-08-02T17:40:00.562Z,977.08
2023-08-02T17:45:00.579Z,977.21
2023-08-02T17:50:00.593Z,976.89
2023-08-02T17:55:00.639Z,976.6
2023-08-02T18:00:00.605Z,976.76
2023-08-02T18:05:00.854Z,976.49
2023-08-02T18:10:00.573Z,976.25
2023-08-02T18:15:00.644Z,976.41
2023-08-02T18:20:00.602Z,976.15
2023-08-02T18:25:00.577Z,976.02
2023-08-02T18:30:00.898Z,975.92
2023-08-02T18:35:00.607Z,975.13
2023-08-02T18:40:00.586Z,975.24
2023-08-02T18:45:00.599Z,976.04
2023-08-02T18:50:00.623Z,976
2023-08-02T18:55:00.565Z,976.13
2023-08-02T19:00:00.612Z,976.23
2023-08-02T19:05:00.799Z,976.24
2023-08-02T19:10:00.615Z,976.39
2023-08-02T19:15:00.594Z,976.67
2023-08-02T19:20:00.553Z,977.07
2023-08-02T19:25:00.579Z,977.07
2023-08-02T19:30:00.634Z,977.16
2023-08-02T19:35:00.817Z,977.26
2023-08-02T19:40:00.607Z,977.22
2023-08-02T19:45:00.569Z,977.15
2023-08-02T19:50:00.662Z,977.3
2023-08-02T19:55:00.545Z,977.29
2023-08-02T20:00:00.732Z,977.37
2023-08-02T20:05:00.573Z,977.4
2023-08-02T20:10:00.623Z,977.41
2023-08-02T20:15:00.624Z,977.22
2023-08-02T20:20:00.548Z,977.21
2023-08-02T20:25:00.560Z,977.73
2023-08-02T20:30:02.245Z,977.53
2023-08-02T20:35:00.580Z,977.57
2023-08-02T20:40:00.563Z,977.59
2023-08-02T20:45:00.566Z,977.65
2023-08-02T20:50:00.567Z,977.95
2023-08-02T20:55:00.563Z,978.21
2023-08-02T21:00:00.735Z,978.25
2023-08-02T21:05:00.554Z,978.27
2023-08-02T21:10:00.653Z,978.29
2023-08-02T21:15:00.607Z,978.4
2023-08-02T21:20:00.581Z,978.3
2023-08-02T21:25:00.762Z,978.34
2023-08-02T21:30:00.635Z,978.52
2023-08-02T21:35:00.575Z,978.54
2023-08-02T21:40:00.128Z,978.62
2023-08-02T21:45:00.575Z,978.67
2023-08-02T21:50:00.587Z,978.74
2023-08-02T21:55:00.563Z,978.88
2023-08-02T22:00:00.643Z,978.94
2023-08-02T22:05:00.560Z,979.02
2023-08-02T22:10:00.823Z,978.99
2023-08-02T22:15:00.603Z,979.2
2023-08-02T22:20:00.545Z,979.23
2023-08-02T22:25:00.805Z,979.29
2023-08-02T22:30:00.688Z,979.39
2023-08-02T22:35:00.581Z,979.34
2023-08-02T22:40:00.575Z,979.4
2023-08-02T22:45:00.582Z,979.46
2023-08-02T22:55:00.550Z,979.42
2023-08-02T23:00:00.568Z,979.49
2023-08-02T23:05:00.749Z,979.69
2023-08-02T23:10:00.585Z,979.73
2023-08-02T23:15:00.573Z,979.85
2023-08-02T23:20:00.563Z,979.76
2023-08-02T23:25:00.562Z,979.83
2023-08-02T23:30:00.601Z,979.93
2023-08-02T23:35:00.583Z,979.97
2023-08-02T23:40:00.575Z,980.06
2023-08-02T23:45:00.628Z,980.15
2023-08-02T23:50:00.575Z,980.13
2023-08-02T23:55:00.550Z,980.32
